createdAt,value
2023-01-12T00:02:15.931Z,9.00
2023-01-12T00:04:44.091Z,9.10
2023-01-12T00:07:13.790Z,9.20
2023-01-12T00:09:44.881Z,9.30
2023-01-12T00:12:13.931Z,9.30
2023-01-12T00:14:42.112Z,9.10
2023-01-12T00:17:11.914Z,9.00
2023-01-12T00:19:41.563Z,9.10
2023-01-12T00:22:12.673Z,9.10
2023-01-12T00:24:43.917Z,9.20
2023-01-12T00:27:14.744Z,9.00
2023-01-12T00:29:43.175Z,9.00
2023-01-12T00:32:14.445Z,9.10
2023-01-12T00:34:45.142Z,9.20
2023-01-12T00:37:13.817Z,9.10
2023-01-12T00:39:45.979Z,9.10
2023-01-12T00:42:34.614Z,9.20
2023-01-12T00:45:24.346Z,9.30
2023-01-12T00:47:53.337Z,9.30
2023-01-12T00:50:23.169Z,9.20
2023-01-12T00:52:51.280Z,9.40
2023-01-12T00:55:19.511Z,9.40
2023-01-12T00:57:48.072Z,9.40
2023-01-12T01:00:17.576Z,9.40
2023-01-12T01:02:45.741Z,9.50
2023-01-12T01:05:13.914Z,9.40
2023-01-12T01:07:43.454Z,9.40
2023-01-12T01:10:12.596Z,9.30
2023-01-12T01:12:40.814Z,9.50
2023-01-12T01:15:09.790Z,9.50
2023-01-12T01:17:38.052Z,9.50
2023-01-12T01:20:06.919Z,9.50
2023-01-12T01:22:34.992Z,9.60
2023-01-12T01:25:04.668Z,9.60
2023-01-12T01:27:32.801Z,9.60
2023-01-12T01:30:00.912Z,9.30
2023-01-12T01:32:28.967Z,9.40
2023-01-12T01:34:57.017Z,9.40
2023-01-12T01:37:25.069Z,9.50
2023-01-12T01:39:53.115Z,9.60
2023-01-12T01:42:34.510Z,9.30
2023-01-12T01:45:04.488Z,9.30
2023-01-12T01:47:38.628Z,9.50
2023-01-12T01:50:14.286Z,9.70
2023-01-12T01:52:45.627Z,9.60
2023-01-12T01:55:18.063Z,9.40
2023-01-12T01:57:52.608Z,9.50
2023-01-12T02:00:21.483Z,9.50
2023-01-12T02:02:49.943Z,9.30
2023-01-12T02:05:21.059Z,9.30
2023-01-12T02:07:49.829Z,9.50
2023-01-12T02:10:19.103Z,9.60
2023-01-12T02:13:08.707Z,9.50
2023-01-12T02:16:04.288Z,9.40
2023-01-12T02:18:38.187Z,9.50
2023-01-12T02:21:43.048Z,9.60
2023-01-12T02:24:52.980Z,9.60
2023-01-12T02:27:50.055Z,9.50
2023-01-12T02:31:02.322Z,9.60
2023-01-12T02:33:42.004Z,9.60
2023-01-12T02:36:20.447Z,9.70
2023-01-12T02:38:54.494Z,9.70
2023-01-12T02:41:41.673Z,9.50
2023-01-12T02:44:15.808Z,9.70
2023-01-12T02:46:47.290Z,9.50
2023-01-12T02:49:18.832Z,9.60
2023-01-12T02:51:52.017Z,9.60
2023-01-12T02:54:22.568Z,9.60
2023-01-12T02:56:53.844Z,9.60
2023-01-12T02:59:25.299Z,9.70
2023-01-12T03:01:59.982Z,9.80
2023-01-12T03:04:30.101Z,9.80
2023-01-12T03:07:34.950Z,9.90
2023-01-12T03:10:30.265Z,9.90
2023-01-12T03:13:00.703Z,9.70
2023-01-12T03:15:29.945Z,9.60
2023-01-12T03:18:01.472Z,9.70
2023-01-12T03:20:34.098Z,9.60
2023-01-12T03:23:07.851Z,9.70
2023-01-12T03:25:37.124Z,9.70
2023-01-12T03:28:08.238Z,9.70
2023-01-12T03:30:39.720Z,9.80
2023-01-12T03:33:10.195Z,9.70
2023-01-12T03:35:47.209Z,9.70
2023-01-12T03:38:25.146Z,9.60
2023-01-12T03:41:04.186Z,9.60
2023-01-12T03:43:38.111Z,9.80
2023-01-12T03:46:13.931Z,9.80
2023-01-12T03:48:48.898Z,9.70
2023-01-12T03:51:21.430Z,9.90
2023-01-12T03:53:52.054Z,9.80
2023-01-12T03:56:22.333Z,9.70
2023-01-12T03:58:51.583Z,9.70
2023-01-12T04:01:19.940Z,9.90
2023-01-12T04:03:49.475Z,9.80
2023-01-12T04:06:17.555Z,9.90
2023-01-12T04:08:45.663Z,9.70
2023-01-12T04:11:31.110Z,9.60
2023-01-12T04:13:59.233Z,9.80
2023-01-12T04:16:27.383Z,9.70
2023-01-12T04:18:56.871Z,9.70
2023-01-12T04:21:42.917Z,9.80
2023-01-12T04:24:12.085Z,9.70
2023-01-12T04:26:40.136Z,9.90
2023-01-12T04:29:08.246Z,9.80
2023-01-12T04:31:36.363Z,9.70
2023-01-12T04:34:05.991Z,9.60
2023-01-12T04:36:34.049Z,9.70
2023-01-12T04:39:02.153Z,9.70
2023-01-12T04:41:30.996Z,9.80
2023-01-12T04:43:59.064Z,9.80
2023-01-12T04:46:27.147Z,10.00
2023-01-12T04:48:55.221Z,9.90
2023-01-12T04:51:24.672Z,10.00
2023-01-12T04:53:53.264Z,9.90
2023-01-12T04:56:21.852Z,9.90
2023-01-12T04:58:59.561Z,10.00
2023-01-12T05:01:29.373Z,9.90
2023-01-12T05:04:00.555Z,9.70
2023-01-12T05:06:30.640Z,9.60
2023-01-12T05:09:16.424Z,9.40
2023-01-12T05:11:45.502Z,9.60
2023-01-12T05:14:13.544Z,9.70
2023-01-12T05:16:44.287Z,9.70
2023-01-12T05:19:12.498Z,9.80
2023-01-12T05:21:41.918Z,9.70
2023-01-12T05:24:10.099Z,9.80
2023-01-12T05:26:38.173Z,9.80
2023-01-12T05:29:06.287Z,9.90
2023-01-12T05:31:35.255Z,10.30
2023-01-12T05:34:03.481Z,10.10
2023-01-12T05:36:31.552Z,10.00
2023-01-12T05:39:01.003Z,10.00
2023-01-12T05:41:29.070Z,10.00
2023-01-12T05:43:56.169Z,10.10
2023-01-12T05:46:26.367Z,10.10
2023-01-12T05:48:56.028Z,9.90
2023-01-12T05:51:24.691Z,10.10
2023-01-12T05:53:52.962Z,10.10
2023-01-12T05:56:25.763Z,10.00
2023-01-12T05:58:55.515Z,10.10
2023-01-12T06:01:23.910Z,10.00
2023-01-12T06:03:53.594Z,10.10
2023-01-12T06:06:22.720Z,10.00
2023-01-12T06:08:52.627Z,10.10
2023-01-12T06:11:40.458Z,10.00
2023-01-12T06:14:09.665Z,10.00
2023-01-12T06:16:39.600Z,10.00
2023-01-12T06:19:08.212Z,10.20
2023-01-12T06:21:36.390Z,9.90
2023-01-12T06:24:04.863Z,10.00
2023-01-12T06:26:34.331Z,10.00
2023-01-12T06:29:03.578Z,9.90
2023-01-12T06:31:31.979Z,9.80
2023-01-12T06:34:00.098Z,9.90
2023-01-12T06:36:28.235Z,10.00
2023-01-12T06:38:56.365Z,10.30
2023-01-12T06:41:42.059Z,10.10
2023-01-12T06:44:11.485Z,10.00
2023-01-12T06:46:39.802Z,10.00
2023-01-12T06:49:08.001Z,10.00
2023-01-12T06:51:36.070Z,10.00
2023-01-12T06:54:04.341Z,9.90
2023-01-12T06:56:32.520Z,9.80
2023-01-12T06:59:00.796Z,10.10
2023-01-12T07:01:30.319Z,10.10
2023-01-12T07:03:58.564Z,10.00
2023-01-12T07:06:26.689Z,10.00
2023-01-12T07:08:54.895Z,10.10
2023-01-12T07:11:23.057Z,10.40
2023-01-12T07:13:51.405Z,9.90
2023-01-12T07:16:19.544Z,9.90
2023-01-12T07:18:49.575Z,10.00
2023-01-12T07:21:19.626Z,10.00
2023-01-12T07:23:47.861Z,10.10
2023-01-12T07:26:16.049Z,10.10
2023-01-12T07:28:44.150Z,10.20
2023-01-12T07:31:12.358Z,10.00
2023-01-12T07:33:40.479Z,10.40
2023-01-12T07:36:10.317Z,10.20
2023-01-12T07:38:38.615Z,10.20
2023-01-12T07:41:26.744Z,10.00
2023-01-12T07:44:00.493Z,10.10
2023-01-12T07:46:28.747Z,10.20
2023-01-12T07:48:59.927Z,10.00
2023-01-12T07:51:30.129Z,10.10
2023-01-12T07:53:58.253Z,9.90
2023-01-12T07:56:26.336Z,9.80
2023-01-12T07:58:54.487Z,9.80
2023-01-12T08:01:22.654Z,9.70
2023-01-12T08:03:50.746Z,9.50
2023-01-12T08:06:18.840Z,9.60
2023-01-12T08:08:48.279Z,9.70
2023-01-12T08:11:16.393Z,9.80
2023-01-12T08:13:44.460Z,9.90
2023-01-12T08:16:17.494Z,9.80
2023-01-12T08:18:49.733Z,9.90
2023-01-12T08:21:21.922Z,9.90
2023-01-12T08:23:57.238Z,9.70
2023-01-12T08:26:28.290Z,9.80
2023-01-12T08:29:00.821Z,9.70
2023-01-12T08:31:29.444Z,9.70
2023-01-12T08:33:57.623Z,9.50
2023-01-12T08:36:27.274Z,9.40
2023-01-12T08:38:57.076Z,9.50
2023-01-12T08:41:34.157Z,9.60
2023-01-12T08:44:02.897Z,9.90
2023-01-12T08:46:32.716Z,10.00
2023-01-12T08:49:01.263Z,9.80
2023-01-12T08:51:29.573Z,9.80
2023-01-12T08:53:59.218Z,10.00
2023-01-12T08:56:27.326Z,9.90
2023-01-12T08:58:55.443Z,10.00
2023-01-12T09:01:27.553Z,10.00
2023-01-12T09:03:57.473Z,10.20
2023-01-12T09:06:27.698Z,10.10
2023-01-12T09:08:58.821Z,10.20
2023-01-12T09:11:28.139Z,10.00
2023-01-12T09:13:58.562Z,9.90
2023-01-12T09:16:28.691Z,9.90
2023-01-12T09:18:57.002Z,9.90
2023-01-12T09:21:26.933Z,9.90
2023-01-12T09:23:55.934Z,9.90
2023-01-12T09:26:28.240Z,10.00
2023-01-12T09:28:57.015Z,10.10
2023-01-12T09:31:25.580Z,10.10
2023-01-12T09:33:54.700Z,10.30
2023-01-12T09:36:25.408Z,10.30
2023-01-12T09:38:54.433Z,10.30
2023-01-12T09:41:44.703Z,10.20
2023-01-12T09:44:36.656Z,10.30
2023-01-12T09:47:10.394Z,10.20
2023-01-12T09:49:45.041Z,10.30
2023-01-12T09:52:17.451Z,10.50
2023-01-12T09:54:48.828Z,10.40
2023-01-12T09:57:55.472Z,10.50
2023-01-12T10:00:24.555Z,10.60
2023-01-12T10:02:57.118Z,10.60
2023-01-12T10:05:39.703Z,10.50
2023-01-12T10:08:17.404Z,10.40
2023-01-12T10:11:02.342Z,10.40
2023-01-12T10:14:03.655Z,10.50
2023-01-12T10:16:40.470Z,10.50
2023-01-12T10:19:18.046Z,10.50
2023-01-12T10:21:46.372Z,10.70
2023-01-12T10:24:14.884Z,10.60
2023-01-12T10:26:44.173Z,10.70
2023-01-12T10:29:13.971Z,10.70
2023-01-12T10:31:42.126Z,10.80
2023-01-12T10:34:12.135Z,10.70
2023-01-12T10:36:44.305Z,11.10
2023-01-12T10:39:30.241Z,10.90
2023-01-12T10:42:36.533Z,10.80
2023-01-12T10:45:20.817Z,10.80
2023-01-12T10:47:50.993Z,10.90
2023-01-12T10:50:28.610Z,10.90
2023-01-12T10:53:01.291Z,10.90
2023-01-12T10:55:33.706Z,10.90
2023-01-12T10:58:02.065Z,10.80
2023-01-12T11:00:32.088Z,11.10
2023-01-12T11:03:00.288Z,11.20
2023-01-12T11:05:31.848Z,11.10
2023-01-12T11:08:00.320Z,11.20
2023-01-12T11:10:30.615Z,11.10
2023-01-12T11:13:00.611Z,11.00
2023-01-12T11:15:32.473Z,11.10
2023-01-12T11:18:20.231Z,11.40
2023-01-12T11:20:51.620Z,11.10
2023-01-12T11:23:25.176Z,11.10
2023-01-12T11:25:54.315Z,11.20
2023-01-12T11:28:29.164Z,11.20
2023-01-12T11:31:03.242Z,11.10
2023-01-12T11:33:39.260Z,11.00
2023-01-12T11:36:10.663Z,11.10
2023-01-12T11:38:42.354Z,11.00
2023-01-12T11:41:19.189Z,10.90
2023-01-12T11:43:56.382Z,11.00
2023-01-12T11:46:31.110Z,11.10
2023-01-12T11:49:08.975Z,11.00
2023-01-12T11:51:38.648Z,11.10
2023-01-12T11:54:08.902Z,11.40
2023-01-12T11:57:13.908Z,11.40
2023-01-12T11:59:54.279Z,11.10
2023-01-12T12:02:37.105Z,11.20
2023-01-12T12:05:16.334Z,11.20
2023-01-12T12:07:59.991Z,11.40
2023-01-12T12:10:36.452Z,11.30
2023-01-12T12:13:34.780Z,11.40
2023-01-12T12:16:24.579Z,11.70
2023-01-12T12:19:06.403Z,11.20
2023-01-12T12:21:50.003Z,11.20
2023-01-12T12:24:37.165Z,11.10
2023-01-12T12:27:16.304Z,11.10
2023-01-12T12:30:09.370Z,11.20
2023-01-12T12:32:45.355Z,11.20
2023-01-12T12:35:29.248Z,11.10
2023-01-12T12:38:12.633Z,11.10
2023-01-12T12:41:10.041Z,11.20
2023-01-12T12:43:56.996Z,11.20
2023-01-12T12:46:34.404Z,11.20
2023-01-12T12:49:05.974Z,11.10
2023-01-12T12:51:38.314Z,11.20
2023-01-12T12:54:15.644Z,11.10
2023-01-12T12:56:46.164Z,11.00
2023-01-12T12:59:50.149Z,11.00
2023-01-12T13:02:39.024Z,11.30
2023-01-12T13:05:09.941Z,11.30
2023-01-12T13:07:45.431Z,11.40
2023-01-12T13:10:31.782Z,11.30
2023-01-12T13:13:17.677Z,11.10
2023-01-12T13:15:46.821Z,11.10
2023-01-12T13:18:42.723Z,11.30
2023-01-12T13:21:32.848Z,11.30
2023-01-12T13:24:39.198Z,11.40
2023-01-12T13:27:41.342Z,11.40
2023-01-12T13:30:40.409Z,11.20
2023-01-12T13:33:24.669Z,11.50
2023-01-12T13:36:10.709Z,11.50
2023-01-12T13:38:59.438Z,11.50
2023-01-12T13:41:48.997Z,11.70
2023-01-12T13:44:24.463Z,11.60
2023-01-12T13:46:58.861Z,11.40
2023-01-12T13:49:30.833Z,11.30
2023-01-12T13:52:02.048Z,11.40
2023-01-12T13:54:31.494Z,11.20
2023-01-12T13:57:04.290Z,11.40
2023-01-12T13:59:35.080Z,11.30
2023-01-12T14:02:05.059Z,11.30
2023-01-12T14:04:59.030Z,11.40
2023-01-12T14:07:44.803Z,11.30
2023-01-12T14:10:33.646Z,11.50
2023-01-12T14:13:29.201Z,11.60
2023-01-12T14:16:19.553Z,11.70
2023-01-12T14:18:50.912Z,11.80
2023-01-12T14:21:25.899Z,11.50
2023-01-12T14:23:54.730Z,11.70
2023-01-12T14:26:27.096Z,11.80
2023-01-12T14:28:56.578Z,11.80
2023-01-12T14:31:28.214Z,11.60
2023-01-12T14:33:58.208Z,11.40
2023-01-12T14:36:29.722Z,11.40
2023-01-12T14:38:59.963Z,11.40
2023-01-12T14:41:48.254Z,11.40
2023-01-12T14:44:41.011Z,11.60
2023-01-12T14:47:10.760Z,11.50
2023-01-12T14:49:39.641Z,11.50
2023-01-12T14:52:26.087Z,11.40
2023-01-12T14:54:54.605Z,11.60
2023-01-12T14:57:30.752Z,11.30
2023-01-12T15:00:00.827Z,11.20
2023-01-12T15:02:34.450Z,11.50
2023-01-12T15:05:05.178Z,11.30
2023-01-12T15:07:36.265Z,11.50
2023-01-12T15:10:29.772Z,11.60
2023-01-12T15:12:59.138Z,11.60
2023-01-12T15:15:51.065Z,11.70
2023-01-12T15:18:37.285Z,11.50
2023-01-12T15:21:23.508Z,11.40
2023-01-12T15:24:08.951Z,11.40
2023-01-12T15:26:37.182Z,11.30
2023-01-12T15:29:05.292Z,11.40
2023-01-12T15:31:37.088Z,11.50
2023-01-12T15:34:07.982Z,11.50
2023-01-12T15:36:36.176Z,11.50
2023-01-12T15:39:04.308Z,11.50
2023-01-12T15:41:52.999Z,11.20
2023-01-12T15:44:22.526Z,11.30
2023-01-12T15:46:52.129Z,11.40
2023-01-12T15:49:21.398Z,11.40
2023-01-12T15:51:51.838Z,11.40
2023-01-12T15:54:20.722Z,11.40
2023-01-12T15:56:49.565Z,11.30
2023-01-12T15:59:20.550Z,11.40
2023-01-12T16:01:50.975Z,11.30
2023-01-12T16:07:10.335Z,11.50
2023-01-12T16:09:38.429Z,11.40
2023-01-12T16:12:07.658Z,11.50
2023-01-12T16:14:35.822Z,11.70
2023-01-12T16:17:05.451Z,11.60
2023-01-12T16:19:33.766Z,11.50
2023-01-12T16:22:01.931Z,11.60
2023-01-12T16:24:32.727Z,11.60
2023-01-12T16:27:01.730Z,11.40
2023-01-12T16:29:30.024Z,11.70
2023-01-12T16:31:58.315Z,11.60
2023-01-12T16:34:27.867Z,11.60
2023-01-12T16:36:55.985Z,11.60
2023-01-12T16:39:24.895Z,11.70
2023-01-12T16:42:00.130Z,11.60
2023-01-12T16:44:28.664Z,11.60
2023-01-12T16:46:57.103Z,11.40
2023-01-12T16:49:25.525Z,11.60
2023-01-12T16:51:55.301Z,11.60
2023-01-12T16:54:23.530Z,12.10
2023-01-12T16:56:52.220Z,11.70
2023-01-12T16:59:20.372Z,11.60
2023-01-12T17:01:51.678Z,11.70
2023-01-12T17:04:20.823Z,11.50
2023-01-12T17:06:49.322Z,11.40
2023-01-12T17:09:19.389Z,11.50
2023-01-12T17:11:50.702Z,11.50
2023-01-12T17:14:25.127Z,11.30
2023-01-12T17:16:56.199Z,11.50
2023-01-12T17:19:25.584Z,11.30
2023-01-12T17:21:55.092Z,11.30
2023-01-12T17:24:25.420Z,11.40
2023-01-12T17:26:55.249Z,11.60
2023-01-12T17:29:25.328Z,11.60
2023-01-12T17:31:56.547Z,11.60
2023-01-12T17:34:28.718Z,11.30
2023-01-12T17:37:03.005Z,11.50
2023-01-12T17:39:32.676Z,11.60
2023-01-12T17:42:18.116Z,11.60
2023-01-12T17:44:46.256Z,11.60
2023-01-12T17:47:14.423Z,11.50
2023-01-12T17:49:43.067Z,11.50
2023-01-12T17:52:11.209Z,11.60
2023-01-12T17:54:40.741Z,11.50
2023-01-12T17:57:09.509Z,11.60
2023-01-12T17:59:37.862Z,11.50
2023-01-12T18:02:07.146Z,11.40
2023-01-12T18:04:35.351Z,11.50
2023-01-12T18:07:03.529Z,11.50
2023-01-12T18:09:32.271Z,11.50
2023-01-12T18:12:02.954Z,11.40
2023-01-12T18:14:31.208Z,11.40
2023-01-12T18:16:59.350Z,11.30
2023-01-12T18:19:27.676Z,11.40
2023-01-12T18:21:55.981Z,11.50
2023-01-12T18:24:25.254Z,11.40
2023-01-12T18:26:53.748Z,11.30
2023-01-12T18:29:23.264Z,11.30
2023-01-12T18:31:51.420Z,11.50
2023-01-12T18:34:19.610Z,11.50
2023-01-12T18:36:50.572Z,11.40
2023-01-12T18:39:19.540Z,11.30
2023-01-12T18:42:05.437Z,11.20
2023-01-12T18:44:35.721Z,11.20
2023-01-12T18:47:21.705Z,11.20
2023-01-12T18:49:49.955Z,11.50
2023-01-12T18:52:36.427Z,11.50
2023-01-12T18:55:05.721Z,11.50
2023-01-12T18:57:34.198Z,11.60
2023-01-12T19:00:13.615Z,11.60
2023-01-12T19:02:41.969Z,11.40
2023-01-12T19:05:19.754Z,11.50
2023-01-12T19:08:24.804Z,11.40
2023-01-12T19:10:53.149Z,11.60
2023-01-12T19:13:38.505Z,11.60
2023-01-12T19:16:26.007Z,11.70
2023-01-12T19:18:54.330Z,11.50
2023-01-12T19:21:40.399Z,11.70
2023-01-12T19:24:29.366Z,11.60
2023-01-12T19:27:16.057Z,11.20
2023-01-12T19:29:45.002Z,11.30
2023-01-12T19:32:14.763Z,11.40
2023-01-12T19:34:43.042Z,11.60
2023-01-12T19:37:13.174Z,11.70
2023-01-12T19:40:00.194Z,11.60
2023-01-12T19:42:47.129Z,11.50
2023-01-12T19:45:16.108Z,11.40
2023-01-12T19:47:46.385Z,11.40
2023-01-12T19:50:15.057Z,11.20
2023-01-12T19:52:44.373Z,11.00
2023-01-12T19:55:15.161Z,11.10
2023-01-12T19:57:44.128Z,11.00
2023-01-12T20:00:16.060Z,11.00
2023-01-12T20:02:45.968Z,11.10
2023-01-12T20:05:21.853Z,11.00
2023-01-12T20:07:50.964Z,11.00
2023-01-12T20:10:19.903Z,10.90
2023-01-12T20:12:48.271Z,11.00
2023-01-12T20:15:18.688Z,10.90
2023-01-12T20:17:49.120Z,11.10
2023-01-12T20:20:17.982Z,11.00
2023-01-12T20:22:46.827Z,11.20
2023-01-12T20:25:14.935Z,11.30
2023-01-12T20:27:43.094Z,11.10
2023-01-12T20:30:16.377Z,10.90
2023-01-12T20:32:51.684Z,11.10
2023-01-12T20:35:23.187Z,11.10
2023-01-12T20:37:51.953Z,10.90
2023-01-12T20:40:20.873Z,11.00
2023-01-12T20:42:48.944Z,11.30
2023-01-12T20:45:19.243Z,11.20
2023-01-12T20:47:49.457Z,11.30
2023-01-12T20:50:18.808Z,11.40
2023-01-12T20:52:48.003Z,11.50
2023-01-12T20:55:16.373Z,11.30
2023-01-12T20:57:44.440Z,11.20
2023-01-12T21:00:14.032Z,11.10
2023-01-12T21:02:42.120Z,11.00
2023-01-12T21:05:11.732Z,11.00
2023-01-12T21:07:39.891Z,11.00
2023-01-12T21:10:09.200Z,11.00
2023-01-12T21:12:37.301Z,11.10
2023-01-12T21:15:06.244Z,11.10
2023-01-12T21:17:35.807Z,11.30
2023-01-12T21:20:04.006Z,11.20
2023-01-12T21:22:33.447Z,11.10
2023-01-12T21:25:01.751Z,11.20
2023-01-12T21:27:29.973Z,11.10
2023-01-12T21:29:59.101Z,11.20
2023-01-12T21:32:27.387Z,11.30
2023-01-12T21:34:56.131Z,11.30
2023-01-12T21:37:24.222Z,11.30
2023-01-12T21:39:54.725Z,11.30
2023-01-12T21:42:41.280Z,11.40
2023-01-12T21:45:11.543Z,11.40
2023-01-12T21:47:40.402Z,11.50
2023-01-12T21:50:12.659Z,11.40
2023-01-12T21:52:42.174Z,11.40
2023-01-12T21:55:13.831Z,11.30
2023-01-12T21:57:44.050Z,11.10
2023-01-12T22:00:13.917Z,11.10
2023-01-12T22:02:44.402Z,11.10
2023-01-12T22:05:13.815Z,11.20
2023-01-12T22:07:42.551Z,11.30
2023-01-12T22:10:24.099Z,11.10
2023-01-12T22:12:55.257Z,11.10
2023-01-12T22:15:25.583Z,11.00
2023-01-12T22:17:54.754Z,10.90
2023-01-12T22:20:24.278Z,11.10
2023-01-12T22:22:54.196Z,11.10
2023-01-12T22:25:24.377Z,11.10
2023-01-12T22:27:53.489Z,10.90
2023-01-12T22:30:24.265Z,10.90
2023-01-12T22:32:55.531Z,10.80
2023-01-12T22:35:26.201Z,11.10
2023-01-12T22:37:55.970Z,10.90
2023-01-12T22:40:25.598Z,10.80
2023-01-12T22:43:11.216Z,10.90
2023-01-12T22:45:40.471Z,10.90
2023-01-12T22:48:08.682Z,10.90
2023-01-12T22:50:37.439Z,10.70
2023-01-12T22:53:05.526Z,10.80
2023-01-12T22:55:35.093Z,10.90
2023-01-12T22:58:03.362Z,10.80
2023-01-12T23:00:31.658Z,10.90
2023-01-12T23:03:02.978Z,11.00
2023-01-12T23:05:36.957Z,11.00
2023-01-12T23:08:06.594Z,10.80
2023-01-12T23:10:36.550Z,10.80
2023-01-12T23:13:16.162Z,10.90
2023-01-12T23:15:49.447Z,10.90
2023-01-12T23:18:19.351Z,10.70
2023-01-12T23:20:47.955Z,10.90
2023-01-12T23:23:18.325Z,11.10
2023-01-12T23:25:48.532Z,11.00
2023-01-12T23:28:17.043Z,11.10
2023-01-12T23:30:45.769Z,11.10
2023-01-12T23:33:14.112Z,11.20
2023-01-12T23:35:43.450Z,11.00
2023-01-12T23:38:16.459Z,11.20
2023-01-12T23:40:44.884Z,11.10
2023-01-12T23:43:14.511Z,11.10
2023-01-12T23:45:42.833Z,11.10
2023-01-12T23:48:11.086Z,11.40
2023-01-12T23:50:39.521Z,11.00
2023-01-12T23:53:07.859Z,10.90
2023-01-12T23:55:39.328Z,11.00
2023-01-12T23:58:08.332Z,11.10
